Time;durP1;ratioP1;P1;durP2;ratioP2;P2;SDS_P1;SDS_P2;PMS_P1;PMS_P2;Temp;Humidity;BMP_temperature;BMP_pressure;BME280_temperature;BME280_humidity;BME280_pressure;Samples;Min_cycle;Max_cycle;Signal;HPM_P1;HPM_P2
2023/10/19 00:02:31;;;;;;;;;;;;;;;6.84;100.00;94304.66;10520934;28;1975;-80
2023/10/19 00:07:33;;;;;;;;;;;;;;;6.92;100.00;94294.13;10528636;28;4607;-80
2023/10/19 00:12:36;;;;;;;;;;;;;;;6.82;100.00;94291.59;10517350;28;2697;-81
2023/10/19 00:17:39;;;;;;;;;;;;;;;6.83;100.00;94274.50;10511842;28;2658;-81
2023/10/19 00:22:42;;;;;;;;;;;;;;;6.86;100.00;94265.09;10514037;28;2568;-80
2023/10/19 00:27:48;;;;;;;;;;;;;;;6.91;100.00;94271.19;10515016;28;2855;-80
2023/10/19 00:32:52;;;;;;;;;;;;;;;6.93;100.00;94274.34;10511655;28;2538;-80
2023/10/19 00:37:57;;;;;;;;;;;;;;;6.97;100.00;94264.69;10524149;28;2226;-79
2023/10/19 00:42:59;;;;;;;;;;;;;;;7.07;100.00;94254.97;10521703;28;1976;-80
2023/10/19 00:48:08;;;;;;;;;;;;;;;7.08;100.00;94241.31;10526389;28;1914;-79
2023/10/19 00:53:12;;;;;;;;;;;;;;;7.02;100.00;94231.78;10504114;28;2578;-80
2023/10/19 00:58:17;;;;;;;;;;;;;;;6.99;100.00;94227.78;10522486;28;2530;-80
2023/10/19 01:03:20;;;;;;;;;;;;;;;7.03;100.00;94231.47;10514049;28;2807;-80
2023/10/19 01:08:30;;;;;;;;;;;;;;;7.15;100.00;94231.06;10511835;28;2679;-80
2023/10/19 01:13:34;;;;;;;;;;;;;;;7.25;100.00;94224.75;10509635;28;2761;-81
2023/10/19 01:18:37;;;;;;;;;;;;;;;7.29;100.00;94215.09;10518524;28;2553;-80
2023/10/19 01:23:40;;;;;;;;;;;;;;;7.41;100.00;94244.03;10520379;28;1966;-80
2023/10/19 01:28:48;;;;;;;;;;;;;;;7.37;100.00;94254.50;10523130;28;2006;-80
2023/10/19 01:33:54;;;;;;;;;;;;;;;7.41;100.00;94246.72;10519714;28;2690;-80
2023/10/19 01:39:00;;;;;;;;;;;;;;;7.33;100.00;94240.16;10511235;28;2612;-81
2023/10/19 01:44:05;;;;;;;;;;;;;;;7.34;100.00;94241.75;10506116;28;2616;-81
2023/10/19 01:49:08;;;;;;;;;;;;;;;7.41;100.00;94241.38;10505548;28;2584;-80
2023/10/19 01:54:11;;;;;;;;;;;;;;;7.30;100.00;94232.69;10509768;28;2695;-78
2023/10/19 01:59:16;;;;;;;;;;;;;;;7.25;100.00;94219.41;10518799;28;2316;-79
2023/10/19 02:04:21;;;;;;;;;;;;;;;7.27;100.00;94225.28;10522382;28;2067;-80
2023/10/19 02:09:26;;;;;;;;;;;;;;;7.25;100.00;94204.19;10524883;28;2459;-81
2023/10/19 02:14:29;;;;;;;;;;;;;;;7.38;100.00;94220.56;10514742;28;2561;-81
2023/10/19 02:19:33;;;;;;;;;;;;;;;7.50;100.00;94236.94;10510168;28;2729;-80
2023/10/19 02:24:35;;;;;;;;;;;;;;;7.50;100.00;94221.69;10505567;28;2601;-80
2023/10/19 02:29:38;;;;;;;;;;;;;;;7.50;100.00;94216.34;10517015;28;2687;-81
2023/10/19 02:34:41;;;;;;;;;;;;;;;7.54;100.00;94209.34;10517964;28;2818;-79
2023/10/19 02:39:44;;;;;;;;;;;;;;;7.61;100.00;94205.50;10494065;28;2640;-80
2023/10/19 02:44:46;;;;;;;;;;;;;;;7.67;100.00;94209.66;10514842;28;2679;-80
2023/10/19 02:49:55;;;;;;;;;;;;;;;7.74;100.00;94205.53;10520042;28;2935;-81
2023/10/19 02:54:59;;;;;;;;;;;;;;;7.75;100.00;94195.63;10521874;28;2660;-81
2023/10/19 03:00:07;;;;;;;;;;;;;;;7.71;100.00;94194.63;10520550;28;2508;-81
2023/10/19 03:05:14;;;;;;;;;;;;;;;7.72;100.00;94177.50;10519659;28;2541;-80
2023/10/19 03:10:23;;;;;;;;;;;;;;;7.66;100.00;94173.31;10517286;28;4728;-80
2023/10/19 03:15:30;;;;;;;;;;;;;;;7.59;100.00;94176.38;10516276;28;2572;-79
2023/10/19 03:20:33;;;;;;;;;;;;;;;7.65;100.00;94172.53;10515672;28;2587;-80
2023/10/19 03:26:17;;;;;;;;;;;;;;;7.70;100.00;94155.59;10513948;28;2534;-80
2023/10/19 03:31:08;;;;;;;;;;;;;;;7.80;100.00;94150.84;10510770;28;2877;-79
2023/10/19 03:36:13;;;;;;;;;;;;;;;7.81;100.00;94152.44;10515469;28;2688;-81
2023/10/19 03:41:15;;;;;;;;;;;;;;;7.89;100.00;94147.50;10518897;28;2573;-79
2023/10/19 03:46:28;;;;;;;;;;;;;;;7.95;100.00;94140.94;10511302;28;2557;-79
2023/10/19 03:51:39;;;;;;;;;;;;;;;7.97;100.00;94139.59;10517933;28;2582;-81
2023/10/19 03:56:42;;;;;;;;;;;;;;;7.97;100.00;94142.25;10494852;28;2555;-78
2023/10/19 04:01:44;;;;;;;;;;;;;;;8.00;100.00;94133.63;10515876;28;2601;-81
2023/10/19 04:06:49;;;;;;;;;;;;;;;8.13;100.00;94132.84;10518422;28;2584;-81
2023/10/19 04:11:52;;;;;;;;;;;;;;;8.21;100.00;94141.28;10512734;28;2670;-82
2023/10/19 04:16:55;;;;;;;;;;;;;;;8.25;100.00;94136.91;10512755;28;2580;-79
2023/10/19 04:21:58;;;;;;;;;;;;;;;8.29;100.00;94129.88;10533087;28;2621;-81
2023/10/19 04:27:01;;;;;;;;;;;;;;;8.38;100.00;94128.09;10542975;28;2594;-80
2023/10/19 04:32:06;;;;;;;;;;;;;;;8.38;100.00;94107.47;10498379;28;2606;-81
2023/10/19 04:37:12;;;;;;;;;;;;;;;8.43;100.00;94113.81;10510156;28;2648;-80
2023/10/19 04:42:15;;;;;;;;;;;;;;;8.57;100.00;94111.91;10496740;28;2546;-80
2023/10/19 04:47:17;;;;;;;;;;;;;;;8.59;100.00;94102.47;10512152;28;2783;-80
2023/10/19 04:52:20;;;;;;;;;;;;;;;8.69;100.00;94112.16;10509177;28;2628;-79
2023/10/19 04:57:22;;;;;;;;;;;;;;;8.75;100.00;94115.53;10509163;28;2592;-79
2023/10/19 05:02:25;;;;;;;;;;;;;;;8.79;100.00;94121.88;10509392;28;2574;-81
2023/10/19 05:07:28;;;;;;;;;;;;;;;8.90;100.00;94112.50;10508638;28;4709;-80
2023/10/19 05:12:31;;;;;;;;;;;;;;;8.89;100.00;94102.88;10513257;28;2610;-80
2023/10/19 05:17:33;;;;;;;;;;;;;;;8.88;100.00;94095.94;10493411;28;2570;-79
2023/10/19 05:22:36;;;;;;;;;;;;;;;8.91;100.00;94103.38;10519401;28;2801;-81
2023/10/19 05:27:39;;;;;;;;;;;;;;;8.78;100.00;94093.47;10517620;28;2526;-80
2023/10/19 05:32:41;;;;;;;;;;;;;;;8.76;100.00;94101.03;10495640;28;2541;-82
2023/10/19 05:37:44;;;;;;;;;;;;;;;8.77;100.00;94102.63;10505754;28;2837;-81
2023/10/19 05:42:47;;;;;;;;;;;;;;;8.79;100.00;94090.53;10509927;28;2776;-80
2023/10/19 05:47:49;;;;;;;;;;;;;;;8.74;100.00;94092.53;10512610;28;2684;-83
2023/10/19 05:52:52;;;;;;;;;;;;;;;8.76;100.00;94079.59;10511073;28;2850;-81
2023/10/19 05:57:58;;;;;;;;;;;;;;;8.78;100.00;94083.59;10507447;28;2631;-81
2023/10/19 06:03:00;;;;;;;;;;;;;;;8.74;100.00;94079.13;10511182;28;2625;-80
2023/10/19 06:08:04;;;;;;;;;;;;;;;8.79;100.00;94079.00;10507504;28;2688;-79
2023/10/19 06:13:09;;;;;;;;;;;;;;;8.79;100.00;94089.72;10514215;28;2573;-81
2023/10/19 06:18:13;;;;;;;;;;;;;;;8.83;100.00;94091.47;10516671;28;2722;-80
2023/10/19 06:23:16;;;;;;;;;;;;;;;8.85;100.00;94099.22;10522497;28;2603;-81
2023/10/19 06:28:19;;;;;;;;;;;;;;;8.91;100.00;94090.00;10515458;28;2711;-80
2023/10/19 06:33:22;;;;;;;;;;;;;;;9.03;100.00;94095.56;10517971;28;2684;-77
2023/10/19 06:38:25;;;;;;;;;;;;;;;9.16;100.00;94089.38;10507160;28;2680;-77
2023/10/19 06:43:30;;;;;;;;;;;;;;;9.30;100.00;94083.16;10517761;28;2553;-76
2023/10/19 06:48:35;;;;;;;;;;;;;;;9.58;100.00;94073.84;10515203;28;2620;-77
2023/10/19 06:53:38;;;;;;;;;;;;;;;9.90;100.00;94074.59;10511068;28;2566;-76
2023/10/19 06:58:41;;;;;;;;;;;;;;;10.14;100.00;94068.84;10512035;28;2654;-75
2023/10/19 07:03:43;;;;;;;;;;;;;;;10.38;100.00;94080.00;10508538;28;2656;-74
2023/10/19 07:08:46;;;;;;;;;;;;;;;10.49;100.00;94067.81;10515271;28;4634;-76
2023/10/19 07:13:48;;;;;;;;;;;;;;;10.84;100.00;94067.88;10509563;28;2653;-77
2023/10/19 07:18:51;;;;;;;;;;;;;;;11.05;100.00;94059.94;10516307;28;2661;-78
2023/10/19 07:23:55;;;;;;;;;;;;;;;11.40;100.00;94065.28;10513552;28;2605;-77
2023/10/19 07:28:58;;;;;;;;;;;;;;;11.54;100.00;94065.88;10513291;28;2627;-77
2023/10/19 07:34:01;;;;;;;;;;;;;;;12.04;100.00;94057.97;10514481;28;2854;-77
2023/10/19 07:39:03;;;;;;;;;;;;;;;12.41;100.00;94045.56;10515181;28;2666;-77
2023/10/19 07:44:06;;;;;;;;;;;;;;;12.87;100.00;94046.50;10515061;28;2647;-75
2023/10/19 07:49:08;;;;;;;;;;;;;;;13.43;100.00;94022.69;10506328;28;2591;-77
2023/10/19 07:54:11;;;;;;;;;;;;;;;13.69;100.00;94016.22;10510642;28;2535;-76
2023/10/19 07:59:13;;;;;;;;;;;;;;;13.91;100.00;94018.47;10524174;28;2467;-76
2023/10/19 08:04:15;;;;;;;;;;;;;;;14.13;100.00;94025.34;10524855;28;1661;-78
2023/10/19 08:09:22;;;;;;;;;;;;;;;14.20;100.00;94008.59;10528008;28;4674;-78
2023/10/19 08:14:25;;;;;;;;;;;;;;;14.37;100.00;94005.63;10524215;28;2003;-77
2023/10/19 08:19:30;;;;;;;;;;;;;;;14.26;100.00;94008.00;10522752;28;1729;-77
2023/10/19 08:24:35;;;;;;;;;;;;;;;14.65;100.00;93996.81;10526275;28;1572;-77
2023/10/19 08:29:37;;;;;;;;;;;;;;;15.05;100.00;93985.97;10526076;28;1957;-76
2023/10/19 08:34:41;;;;;;;;;;;;;;;15.49;100.00;93984.06;10521389;28;1492;-76
2023/10/19 08:39:44;;;;;;;;;;;;;;;15.88;100.00;93986.97;10518228;28;1480;-77
2023/10/19 08:44:46;;;;;;;;;;;;;;;16.11;100.00;93979.81;10521434;28;2935;-78
2023/10/19 08:49:48;;;;;;;;;;;;;;;16.38;100.00;93983.50;10527454;28;1991;-78
2023/10/19 08:54:51;;;;;;;;;;;;;;;16.38;100.00;93988.16;10524046;28;1502;-77
2023/10/19 08:59:56;;;;;;;;;;;;;;;16.16;100.00;93981.47;10520050;28;1928;-77
2023/10/19 09:04:59;;;;;;;;;;;;;;;16.21;100.00;93990.09;10525352;28;1577;-77
2023/10/19 09:10:05;;;;;;;;;;;;;;;16.39;100.00;93987.00;10526653;28;1951;-77
2023/10/19 09:15:08;;;;;;;;;;;;;;;16.64;100.00;93977.50;10520591;28;1841;-78
2023/10/19 09:20:10;;;;;;;;;;;;;;;16.77;100.00;93982.81;10524014;28;1871;-78
2023/10/19 09:25:13;;;;;;;;;;;;;;;16.74;100.00;93984.31;10526790;28;1530;-77
2023/10/19 09:30:18;;;;;;;;;;;;;;;16.78;100.00;93979.75;10521232;28;2964;-77
2023/10/19 09:35:21;;;;;;;;;;;;;;;16.78;100.00;93974.31;10527706;28;1564;-80
2023/10/19 09:40:23;;;;;;;;;;;;;;;16.42;100.00;93991.75;10531589;28;1709;-79
2023/10/19 09:45:26;;;;;;;;;;;;;;;16.38;100.00;93991.66;10526919;28;1974;-80
2023/10/19 09:50:29;;;;;;;;;;;;;;;16.51;100.00;93975.25;10526429;28;1934;-79
2023/10/19 09:55:31;;;;;;;;;;;;;;;16.33;100.00;93964.00;10528934;28;1507;-79
2023/10/19 10:00:34;;;;;;;;;;;;;;;16.69;100.00;93971.78;10532778;28;1885;-78
2023/10/19 10:05:37;;;;;;;;;;;;;;;17.66;100.00;93957.34;10520593;28;2572;-80
2023/10/19 10:10:40;;;;;;;;;;;;;;;18.21;100.00;93949.72;10515040;28;4793;-79
2023/10/19 10:15:43;;;;;;;;;;;;;;;17.48;100.00;93927.16;10508476;28;3095;-81
2023/10/19 10:20:46;;;;;;;;;;;;;;;17.54;100.00;93928.44;10511876;28;2616;-81
2023/10/19 10:25:49;;;;;;;;;;;;;;;17.41;100.00;93946.06;10510735;28;2690;-82
2023/10/19 10:30:51;;;;;;;;;;;;;;;17.38;100.00;93938.63;10513001;28;2581;-81
2023/10/19 10:35:54;;;;;;;;;;;;;;;17.35;100.00;93936.63;10513095;28;2574;-81
2023/10/19 10:40:56;;;;;;;;;;;;;;;17.11;100.00;93929.59;10511421;28;2647;-79
2023/10/19 10:45:59;;;;;;;;;;;;;;;17.56;100.00;93928.88;10514582;28;2554;-80
2023/10/19 10:51:01;;;;;;;;;;;;;;;17.69;100.00;93924.03;10521063;28;2747;-80
2023/10/19 10:56:04;;;;;;;;;;;;;;;17.48;100.00;93913.56;10517368;28;2601;-80
2023/10/19 11:01:06;;;;;;;;;;;;;;;17.14;100.00;93915.31;10513522;28;2973;-81
2023/10/19 11:06:09;;;;;;;;;;;;;;;17.61;100.00;93895.94;10514099;28;2613;-76
2023/10/19 11:11:11;;;;;;;;;;;;;;;17.46;100.00;93886.78;10517303;28;4666;-76
2023/10/19 11:16:14;;;;;;;;;;;;;;;17.63;100.00;93890.94;10513335;28;2929;-75
2023/10/19 11:21:18;;;;;;;;;;;;;;;18.26;100.00;93884.16;10513499;28;2647;-76
2023/10/19 11:26:21;;;;;;;;;;;;;;;18.57;100.00;93886.47;10514738;28;2615;-78
2023/10/19 11:31:23;;;;;;;;;;;;;;;18.41;100.00;93877.72;10517451;28;2743;-84
2023/10/19 11:36:26;;;;;;;;;;;;;;;18.29;100.00;93876.03;10519841;28;2745;-86
2023/10/19 11:41:30;;;;;;;;;;;;;;;17.71;100.00;93845.66;10522269;28;2605;-86
2023/10/19 11:46:33;;;;;;;;;;;;;;;17.48;100.00;93829.38;10529506;28;3285;-78
2023/10/19 11:51:37;;;;;;;;;;;;;;;17.24;100.00;93838.69;10511575;28;2649;-79
2023/10/19 11:56:39;;;;;;;;;;;;;;;17.18;100.00;93835.50;10504899;28;2576;-78
2023/10/19 12:01:42;;;;;;;;;;;;;;;17.00;100.00;93820.84;10504845;28;2799;-79
2023/10/19 12:06:45;;;;;;;;;;;;;;;16.89;100.00;93817.16;10514578;28;2664;-77
2023/10/19 12:11:49;;;;;;;;;;;;;;;17.13;100.00;93810.59;10515315;28;2958;-78
2023/10/19 12:16:52;;;;;;;;;;;;;;;17.77;100.00;93800.75;10508479;28;2561;-78
2023/10/19 12:21:55;;;;;;;;;;;;;;;17.96;100.00;93818.88;10510958;28;2625;-78
2023/10/19 12:26:58;;;;;;;;;;;;;;;17.43;100.00;93800.59;10507472;28;2808;-79
2023/10/19 12:32:00;;;;;;;;;;;;;;;17.70;100.00;93795.97;10515343;28;2671;-78
2023/10/19 12:37:03;;;;;;;;;;;;;;;17.71;100.00;93778.53;10508741;28;2600;-79
2023/10/19 12:42:07;;;;;;;;;;;;;;;18.05;100.00;93762.28;10512344;28;2601;-79
2023/10/19 12:47:12;;;;;;;;;;;;;;;18.36;100.00;93761.09;10510375;28;2663;-80
2023/10/19 12:52:15;;;;;;;;;;;;;;;18.89;100.00;93763.59;10508347;28;2593;-80
2023/10/19 12:57:19;;;;;;;;;;;;;;;18.30;100.00;93752.47;10522025;28;2568;-79
2023/10/19 13:02:22;;;;;;;;;;;;;;;17.90;100.00;93755.09;10509512;28;2629;-79
2023/10/19 13:07:26;;;;;;;;;;;;;;;18.21;100.00;93754.72;10508005;28;2788;-80
2023/10/19 13:12:29;;;;;;;;;;;;;;;18.27;100.00;93755.94;10512305;28;2569;-80
2023/10/19 13:17:32;;;;;;;;;;;;;;;18.48;100.00;93739.06;10506228;28;2764;-80
2023/10/19 13:22:35;;;;;;;;;;;;;;;18.46;100.00;93746.06;10506517;28;2716;-80
2023/10/19 13:27:37;;;;;;;;;;;;;;;18.65;100.00;93745.88;10509425;28;2765;-80
2023/10/19 13:32:40;;;;;;;;;;;;;;;18.18;100.00;93760.09;10510154;28;3095;-80
2023/10/19 13:37:43;;;;;;;;;;;;;;;17.97;100.00;93745.09;10509354;28;2590;-80
2023/10/19 13:42:46;;;;;;;;;;;;;;;18.04;100.00;93749.84;10507279;28;2924;-81
2023/10/19 13:47:49;;;;;;;;;;;;;;;18.02;100.00;93752.94;10509218;28;2599;-81
2023/10/19 13:52:51;;;;;;;;;;;;;;;17.69;100.00;93745.50;10514418;28;2765;-79
2023/10/19 13:57:54;;;;;;;;;;;;;;;17.37;100.00;93761.34;10508505;28;2928;-80
2023/10/19 14:02:57;;;;;;;;;;;;;;;17.02;100.00;93767.75;10513643;28;2567;-78
2023/10/19 14:07:59;;;;;;;;;;;;;;;16.82;100.00;93784.47;10514109;28;4725;-79
2023/10/19 14:13:02;;;;;;;;;;;;;;;16.80;100.00;93787.53;10520524;28;2683;-79
2023/10/19 14:18:05;;;;;;;;;;;;;;;16.59;100.00;93790.59;10506386;28;2631;-79
2023/10/19 14:23:08;;;;;;;;;;;;;;;16.08;100.00;93768.31;10507736;28;2601;-78
2023/10/19 14:28:11;;;;;;;;;;;;;;;15.53;100.00;93743.94;10504965;28;2586;-79
2023/10/19 14:33:15;;;;;;;;;;;;;;;15.10;100.00;93704.31;10510232;28;2667;-78
2023/10/19 14:38:19;;;;;;;;;;;;;;;14.97;100.00;93703.63;10511569;28;2570;-78
2023/10/19 14:43:21;;;;;;;;;;;;;;;15.20;100.00;93781.44;10519899;28;3014;-79
2023/10/19 14:48:23;;;;;;;;;;;;;;;15.40;100.00;93761.44;10515551;28;2852;-80
2023/10/19 14:53:27;;;;;;;;;;;;;;;15.26;100.00;93755.69;10517444;28;2628;-80
2023/10/19 14:58:31;;;;;;;;;;;;;;;15.13;100.00;93744.97;10527051;28;2562;-79
2023/10/19 15:03:35;;;;;;;;;;;;;;;14.88;100.00;93747.06;10507228;28;2592;-78
2023/10/19 15:08:37;;;;;;;;;;;;;;;14.64;100.00;93763.50;10500872;28;4716;-79
2023/10/19 15:13:40;;;;;;;;;;;;;;;14.53;100.00;93757.00;10516824;28;2761;-79
2023/10/19 15:18:43;;;;;;;;;;;;;;;14.47;100.00;93764.59;10516949;28;2578;-80
2023/10/19 15:23:46;;;;;;;;;;;;;;;14.46;100.00;93762.22;10521203;28;2565;-80
2023/10/19 15:28:49;;;;;;;;;;;;;;;14.36;100.00;93752.69;10535078;28;2734;-79
2023/10/19 15:33:52;;;;;;;;;;;;;;;14.25;100.00;93746.19;10516509;28;2621;-78
2023/10/19 15:38:55;;;;;;;;;;;;;;;14.24;100.00;93755.44;10501332;28;2612;-78
2023/10/19 15:43:57;;;;;;;;;;;;;;;14.19;100.00;93748.38;10514984;28;2635;-78
2023/10/19 15:49:00;;;;;;;;;;;;;;;14.18;100.00;93710.88;10512859;28;2851;-80
2023/10/19 15:54:04;;;;;;;;;;;;;;;14.03;100.00;93713.22;10515419;28;2565;-80
2023/10/19 15:59:08;;;;;;;;;;;;;;;13.94;100.00;93712.59;10509579;28;2832;-78
2023/10/19 16:04:10;;;;;;;;;;;;;;;13.84;100.00;93718.47;10513018;28;2764;-80
2023/10/19 16:09:13;;;;;;;;;;;;;;;13.69;100.00;93717.31;10510665;28;2617;-79
2023/10/19 16:14:19;;;;;;;;;;;;;;;13.47;100.00;93718.59;10514597;28;2856;-80
2023/10/19 16:19:22;;;;;;;;;;;;;;;13.44;100.00;93711.19;10510068;28;2848;-80
2023/10/19 16:24:29;;;;;;;;;;;;;;;13.38;100.00;93707.16;10514469;28;2850;-79
2023/10/19 16:29:32;;;;;;;;;;;;;;;13.26;100.00;93712.56;10514571;28;2557;-79
2023/10/19 16:34:34;;;;;;;;;;;;;;;13.11;100.00;93737.53;10513469;28;2827;-78
2023/10/19 16:39:37;;;;;;;;;;;;;;;13.06;100.00;93729.66;10507396;28;2700;-79
2023/10/19 16:44:40;;;;;;;;;;;;;;;12.98;100.00;93734.84;10512270;28;2601;-79
2023/10/19 16:49:42;;;;;;;;;;;;;;;12.93;100.00;93748.53;10508157;28;2588;-79
2023/10/19 16:54:45;;;;;;;;;;;;;;;12.94;100.00;93731.22;10509197;28;2635;-79
2023/10/19 16:59:49;;;;;;;;;;;;;;;12.90;100.00;93729.53;10512797;28;2851;-79
2023/10/19 17:04:52;;;;;;;;;;;;;;;12.88;100.00;93716.41;10513331;28;2568;-79
2023/10/19 17:09:55;;;;;;;;;;;;;;;12.83;100.00;93705.84;10520623;28;4672;-78
2023/10/19 17:14:57;;;;;;;;;;;;;;;12.60;100.00;93712.81;10501116;28;2604;-79
2023/10/19 17:20:00;;;;;;;;;;;;;;;12.47;100.00;93719.28;10519547;28;2600;-79
2023/10/19 17:25:03;;;;;;;;;;;;;;;12.34;100.00;93715.78;10509986;28;2609;-80
2023/10/19 17:30:06;;;;;;;;;;;;;;;12.17;100.00;93722.16;10515183;28;2580;-79
2023/10/19 17:35:09;;;;;;;;;;;;;;;12.04;100.00;93717.88;10514095;28;2756;-79
2023/10/19 17:40:11;;;;;;;;;;;;;;;11.94;100.00;93702.13;10507396;28;2621;-79
2023/10/19 17:45:14;;;;;;;;;;;;;;;11.93;100.00;93712.09;10509768;28;2784;-78
2023/10/19 17:50:19;;;;;;;;;;;;;;;11.94;100.00;93691.34;10505508;28;2849;-79
2023/10/19 17:55:21;;;;;;;;;;;;;;;11.89;100.00;93679.66;10511060;28;2579;-78
2023/10/19 18:00:24;;;;;;;;;;;;;;;11.73;100.00;93686.78;10510780;28;2706;-79
2023/10/19 18:05:28;;;;;;;;;;;;;;;11.68;100.00;93678.91;10513191;28;2620;-78
2023/10/19 18:10:31;;;;;;;;;;;;;;;11.77;100.00;93679.63;10515330;28;4808;-78
2023/10/19 18:15:35;;;;;;;;;;;;;;;11.74;100.00;93677.56;10524563;28;2629;-79
2023/10/19 18:20:37;;;;;;;;;;;;;;;11.67;100.00;93661.19;10518015;28;2672;-79
2023/10/19 18:25:40;;;;;;;;;;;;;;;11.62;100.00;93642.56;10514865;28;2649;-78
2023/10/19 18:30:43;;;;;;;;;;;;;;;11.60;100.00;93636.72;10515046;28;2631;-78
2023/10/19 18:35:45;;;;;;;;;;;;;;;11.67;100.00;93618.13;10515927;28;2697;-79
2023/10/19 18:40:48;;;;;;;;;;;;;;;11.60;100.00;93601.75;10514795;28;2676;-78
2023/10/19 18:45:50;;;;;;;;;;;;;;;11.58;100.00;93588.63;10511964;28;2722;-79
2023/10/19 18:50:53;;;;;;;;;;;;;;;11.57;100.00;93570.88;10514547;28;2774;-78
2023/10/19 18:55:56;;;;;;;;;;;;;;;11.59;100.00;93565.19;10509026;28;2773;-79
2023/10/19 19:00:59;;;;;;;;;;;;;;;11.50;100.00;93580.63;10520682;28;2561;-79
2023/10/19 19:06:04;;;;;;;;;;;;;;;11.56;100.00;93596.22;10515286;28;2661;-79
2023/10/19 19:11:06;;;;;;;;;;;;;;;11.51;100.00;93587.56;10514128;28;2582;-79
2023/10/19 19:16:09;;;;;;;;;;;;;;;11.60;100.00;93580.22;10516020;28;2573;-79
2023/10/19 19:21:12;;;;;;;;;;;;;;;11.50;100.00;93567.97;10512624;28;2871;-79
2023/10/19 19:26:14;;;;;;;;;;;;;;;11.51;100.00;93566.06;10515701;28;2656;-81
2023/10/19 19:31:18;;;;;;;;;;;;;;;11.50;100.00;93581.41;10501288;28;2767;-79
2023/10/19 19:36:21;;;;;;;;;;;;;;;11.54;100.00;93570.78;10507059;28;2871;-79
2023/10/19 19:41:25;;;;;;;;;;;;;;;11.56;100.00;93557.78;10517602;28;2538;-79
2023/10/19 19:46:27;;;;;;;;;;;;;;;11.68;100.00;93565.88;10515802;28;2573;-79
2023/10/19 19:51:33;;;;;;;;;;;;;;;11.69;100.00;93567.44;10513398;28;2666;-78
2023/10/19 19:56:35;;;;;;;;;;;;;;;11.75;100.00;93560.72;10514074;28;2639;-79
2023/10/19 20:01:37;;;;;;;;;;;;;;;11.76;100.00;93540.75;10512982;28;2710;-78
2023/10/19 20:06:41;;;;;;;;;;;;;;;11.76;100.00;93523.81;10508828;28;2601;-79
2023/10/19 20:11:44;;;;;;;;;;;;;;;11.88;100.00;93532.72;10512994;28;4638;-78
2023/10/19 20:16:49;;;;;;;;;;;;;;;11.84;100.00;93539.91;10510536;28;2811;-79
2023/10/19 20:21:52;;;;;;;;;;;;;;;11.88;100.00;93551.56;10512487;28;2554;-78
2023/10/19 20:26:54;;;;;;;;;;;;;;;11.91;100.00;93542.06;10496731;28;2878;-78
2023/10/19 20:31:57;;;;;;;;;;;;;;;11.86;100.00;93539.56;10507675;28;2545;-80
2023/10/19 20:37:01;;;;;;;;;;;;;;;11.83;100.00;93514.13;10512590;28;2784;-79
2023/10/19 20:42:05;;;;;;;;;;;;;;;11.91;100.00;93488.22;10513654;28;2620;-79
2023/10/19 20:47:08;;;;;;;;;;;;;;;11.97;100.00;93467.22;10509278;28;2779;-79
2023/10/19 20:52:10;;;;;;;;;;;;;;;11.92;100.00;93440.53;10505711;28;2542;-78
2023/10/19 20:57:13;;;;;;;;;;;;;;;11.95;100.00;93415.63;10507884;28;2561;-80
2023/10/19 21:02:15;;;;;;;;;;;;;;;11.88;100.00;93402.72;10505885;28;2566;-79
2023/10/19 21:07:18;;;;;;;;;;;;;;;11.88;100.00;93400.81;10504356;28;4752;-78
2023/10/19 21:12:20;;;;;;;;;;;;;;;11.81;100.00;93414.06;10507027;28;2570;-79
2023/10/19 21:17:23;;;;;;;;;;;;;;;11.78;100.00;93414.72;10511297;28;2879;-79
2023/10/19 21:22:26;;;;;;;;;;;;;;;11.80;100.00;93439.38;10511017;28;2557;-79
2023/10/19 21:27:28;;;;;;;;;;;;;;;11.75;100.00;93436.91;10509484;28;2601;-79
2023/10/19 21:32:33;;;;;;;;;;;;;;;11.78;100.00;93403.97;10487194;28;2660;-78
2023/10/19 21:37:36;;;;;;;;;;;;;;;11.68;100.00;93419.78;10506115;28;2843;-80
2023/10/19 21:42:39;;;;;;;;;;;;;;;11.69;100.00;93395.19;10506677;28;2593;-79
2023/10/19 21:47:41;;;;;;;;;;;;;;;11.55;100.00;93417.06;10508019;28;2657;-78
2023/10/19 21:52:44;;;;;;;;;;;;;;;11.56;100.00;93380.97;10511765;28;2705;-79
2023/10/19 21:57:46;;;;;;;;;;;;;;;11.50;100.00;93357.31;10511541;28;2691;-79
2023/10/19 22:02:49;;;;;;;;;;;;;;;11.45;100.00;93336.03;10512261;28;2682;-80
2023/10/19 22:08:12;;;;;;;;;;;;;;;11.26;100.00;93332.03;10511368;28;4670;-79
2023/10/19 22:13:15;;;;;;;;;;;;;;;11.17;100.00;93325.97;10518109;28;2577;-78
2023/10/19 22:18:18;;;;;;;;;;;;;;;11.13;100.00;93335.81;10511175;28;2987;-78
2023/10/19 22:23:21;;;;;;;;;;;;;;;11.04;100.00;93324.41;10514307;28;2774;-79
2023/10/19 22:28:23;;;;;;;;;;;;;;;10.98;100.00;93315.78;10513992;28;2829;-79
2023/10/19 22:33:26;;;;;;;;;;;;;;;10.89;100.00;93317.00;10514048;28;2575;-78
2023/10/19 22:38:28;;;;;;;;;;;;;;;10.83;100.00;93306.47;10512164;28;2665;-79
2023/10/19 22:43:32;;;;;;;;;;;;;;;10.72;100.00;93308.03;10512940;28;2576;-79
2023/10/19 22:48:35;;;;;;;;;;;;;;;10.58;100.00;93304.88;10507466;28;2794;-79
2023/10/19 22:53:40;;;;;;;;;;;;;;;10.49;100.00;93301.47;10512490;28;2597;-78
2023/10/19 22:58:43;;;;;;;;;;;;;;;10.46;100.00;93296.78;10514184;28;2636;-79
2023/10/19 23:03:46;;;;;;;;;;;;;;;10.43;100.00;93273.28;10514897;28;2655;-79
2023/10/19 23:08:48;;;;;;;;;;;;;;;10.37;100.00;93266.53;10510137;28;4704;-78
2023/10/19 23:13:52;;;;;;;;;;;;;;;10.32;100.00;93258.72;10494980;28;2835;-80
2023/10/19 23:18:55;;;;;;;;;;;;;;;10.35;100.00;93268.78;10508974;28;2934;-78
2023/10/19 23:23:59;;;;;;;;;;;;;;;10.39;100.00;93264.31;10509521;28;2568;-78
2023/10/19 23:29:04;;;;;;;;;;;;;;;10.43;100.00;93265.22;10509982;28;2648;-78
2023/10/19 23:34:07;;;;;;;;;;;;;;;10.45;100.00;93263.78;10510832;28;2601;-79
2023/10/19 23:39:12;;;;;;;;;;;;;;;10.46;100.00;93243.06;10507705;28;2956;-79
2023/10/19 23:44:15;;;;;;;;;;;;;;;10.44;100.00;93235.34;10511124;28;2927;-78
2023/10/19 23:49:18;;;;;;;;;;;;;;;10.35;100.00;93231.19;10510604;28;2609;-78
2023/10/19 23:54:20;;;;;;;;;;;;;;;10.38;100.00;93219.81;10507115;28;2717;-79
2023/10/19 23:59:24;;;;;;;;;;;;;;;10.40;100.00;93212.19;10508974;28;2633;-79
